createdAt,value
2022-09-12T00:01:15.080Z,92.07
2022-09-12T00:03:49.006Z,92.79
2022-09-12T00:06:24.007Z,93.25
2022-09-12T00:08:57.921Z,93.19
2022-09-12T00:11:30.343Z,92.98
2022-09-12T00:14:03.557Z,92.96
2022-09-12T00:16:37.274Z,92.44
2022-09-12T00:19:09.890Z,91.76
2022-09-12T00:21:40.972Z,92.39
2022-09-12T00:24:13.714Z,92.80
2022-09-12T00:26:44.023Z,92.99
2022-09-12T00:29:19.605Z,92.59
2022-09-12T00:31:51.450Z,91.55
2022-09-12T00:34:23.078Z,91.80
2022-09-12T00:36:54.701Z,91.60
2022-09-12T00:39:26.653Z,92.34
2022-09-12T00:41:58.571Z,92.36
2022-09-12T00:44:49.511Z,92.46
2022-09-12T00:47:25.114Z,92.38
2022-09-12T00:50:04.563Z,91.95
2022-09-12T00:52:41.694Z,92.39
2022-09-12T00:55:17.957Z,93.04
2022-09-12T00:57:55.419Z,92.42
2022-09-12T01:00:29.453Z,92.63
2022-09-12T01:03:05.613Z,92.76
2022-09-12T01:05:44.209Z,92.27
2022-09-12T01:08:16.052Z,91.74
2022-09-12T01:10:48.209Z,91.20
2022-09-12T01:13:20.549Z,91.48
2022-09-12T01:15:52.696Z,92.15
2022-09-12T01:18:31.845Z,93.31
2022-09-12T01:21:21.261Z,93.45
2022-09-12T01:24:13.262Z,93.39
2022-09-12T01:27:09.689Z,93.03
2022-09-12T01:30:17.017Z,92.20
2022-09-12T01:33:01.194Z,92.49
2022-09-12T01:35:39.515Z,93.07
2022-09-12T01:38:18.445Z,92.50
2022-09-12T01:40:59.627Z,92.83
2022-09-12T01:43:35.441Z,93.32
2022-09-12T01:46:11.944Z,93.77
2022-09-12T01:48:49.088Z,93.49
2022-09-12T01:51:26.184Z,93.31
2022-09-12T01:54:05.891Z,93.75
2022-09-12T01:56:41.365Z,93.50
2022-09-12T01:59:19.132Z,93.89
2022-09-12T02:01:57.661Z,94.69
2022-09-12T02:04:34.429Z,94.26
2022-09-12T02:07:16.320Z,94.73
2022-09-12T02:09:52.072Z,94.81
2022-09-12T02:12:31.305Z,95.12
2022-09-12T02:15:08.525Z,95.34
2022-09-12T02:17:43.630Z,95.15
2022-09-12T02:20:37.432Z,94.76
2022-09-12T02:23:15.523Z,95.85
2022-09-12T02:25:50.371Z,95.17
2022-09-12T02:28:26.152Z,95.12
2022-09-12T02:31:08.201Z,95.27
2022-09-12T02:33:50.427Z,95.28
2022-09-12T02:36:36.192Z,94.90
2022-09-12T02:39:09.610Z,96.22
2022-09-12T02:41:39.739Z,95.92
2022-09-12T02:44:11.343Z,95.51
2022-09-12T02:46:46.110Z,96.54
2022-09-12T02:49:18.539Z,95.91
2022-09-12T02:51:51.780Z,96.17
2022-09-12T02:54:24.917Z,95.65
2022-09-12T02:56:56.705Z,95.89
2022-09-12T02:59:29.222Z,96.51
2022-09-12T03:02:15.218Z,96.81
2022-09-12T03:05:12.303Z,96.33
2022-09-12T03:08:06.274Z,95.86
2022-09-12T03:10:48.584Z,96.01
2022-09-12T03:13:26.937Z,96.48
2022-09-12T03:16:12.659Z,97.45
2022-09-12T03:19:00.272Z,97.56
2022-09-12T03:21:37.351Z,97.42
2022-09-12T03:24:16.649Z,97.34
2022-09-12T03:26:53.968Z,96.99
2022-09-12T03:29:28.340Z,96.91
2022-09-12T03:32:01.006Z,96.92
2022-09-12T03:34:32.720Z,97.78
2022-09-12T03:37:04.584Z,98.43
2022-09-12T03:39:36.931Z,98.42
2022-09-12T03:42:08.637Z,97.29
2022-09-12T03:44:40.535Z,97.72
2022-09-12T03:47:12.090Z,98.58
2022-09-12T03:49:43.641Z,98.75
2022-09-12T03:52:15.900Z,98.21
2022-09-12T03:54:47.503Z,99.32
2022-09-12T03:57:19.154Z,98.98
2022-09-12T03:59:52.577Z,98.96
2022-09-12T04:02:24.178Z,99.30
2022-09-12T04:04:55.842Z,99.60
2022-09-12T04:07:28.216Z,99.82
2022-09-12T04:10:00.147Z,99.58
2022-09-12T04:12:33.107Z,99.62
2022-09-12T04:15:05.143Z,99.95
2022-09-12T04:17:37.752Z,99.96
2022-09-12T04:20:10.761Z,100.00
2022-09-12T04:22:42.943Z,99.97
2022-09-12T04:25:14.639Z,99.63
2022-09-12T04:27:46.462Z,99.98
2022-09-12T04:30:18.286Z,100.00
2022-09-12T04:32:49.902Z,99.89
2022-09-12T04:35:21.546Z,99.98
2022-09-12T04:37:53.198Z,100.00
2022-09-12T04:40:24.922Z,99.97
2022-09-12T04:42:56.885Z,99.98
2022-09-12T04:45:28.571Z,100.00
2022-09-12T04:48:00.677Z,100.00
2022-09-12T04:50:32.327Z,100.00
2022-09-12T04:53:03.969Z,100.00
2022-09-12T04:55:36.738Z,100.00
2022-09-12T04:58:08.958Z,100.00
2022-09-12T05:00:40.797Z,100.00
2022-09-12T05:03:12.463Z,100.00
2022-09-12T05:05:44.293Z,100.00
2022-09-12T05:08:16.322Z,100.00
2022-09-12T05:10:48.355Z,100.00
2022-09-12T05:13:19.969Z,100.00
2022-09-12T05:15:58.972Z,100.00
2022-09-12T05:18:32.481Z,100.00
2022-09-12T05:21:06.379Z,100.00
2022-09-12T05:23:38.279Z,100.00
2022-09-12T05:26:13.582Z,100.00
2022-09-12T05:28:45.850Z,100.00
2022-09-12T05:31:19.863Z,100.00
2022-09-12T05:33:53.210Z,100.00
2022-09-12T05:36:29.151Z,100.00
2022-09-12T05:39:01.910Z,100.00
2022-09-12T05:41:33.584Z,100.00
2022-09-12T05:44:07.013Z,100.00
2022-09-12T05:46:41.740Z,100.00
2022-09-12T05:49:14.624Z,100.00
2022-09-12T05:51:47.086Z,99.69
2022-09-12T05:54:21.460Z,99.75
2022-09-12T05:56:53.257Z,99.98
2022-09-12T05:59:25.075Z,100.00
2022-09-12T06:01:56.991Z,100.00
2022-09-12T06:04:29.734Z,100.00
2022-09-12T06:07:01.467Z,100.00
2022-09-12T06:09:33.086Z,100.00
2022-09-12T06:12:05.379Z,100.00
2022-09-12T06:14:37.187Z,100.00
2022-09-12T06:17:09.245Z,99.94
2022-09-12T06:19:40.980Z,99.73
2022-09-12T06:22:13.861Z,99.78
2022-09-12T06:24:45.668Z,99.79
2022-09-12T06:27:17.580Z,99.45
2022-09-12T06:29:49.260Z,99.49
2022-09-12T06:32:21.026Z,99.79
2022-09-12T06:34:52.817Z,100.00
2022-09-12T06:37:24.663Z,100.00
2022-09-12T06:39:56.453Z,100.00
2022-09-12T06:42:28.505Z,100.00
2022-09-12T06:45:03.024Z,100.00
2022-09-12T06:47:35.325Z,100.00
2022-09-12T06:50:08.609Z,100.00
2022-09-12T06:52:40.248Z,100.00
2022-09-12T06:55:15.149Z,100.00
2022-09-12T06:57:49.339Z,100.00
2022-09-12T07:00:21.742Z,100.00
2022-09-12T07:02:56.658Z,100.00
2022-09-12T07:05:28.325Z,100.00
2022-09-12T07:07:59.932Z,100.00
2022-09-12T07:10:31.985Z,100.00
2022-09-12T07:13:03.635Z,100.00
2022-09-12T07:15:37.425Z,100.00
2022-09-12T07:18:11.669Z,100.00
2022-09-12T07:20:43.350Z,100.00
2022-09-12T07:23:15.016Z,100.00
2022-09-12T07:25:53.043Z,100.00
2022-09-12T07:28:28.081Z,99.84
2022-09-12T07:31:06.173Z,99.67
2022-09-12T07:33:38.972Z,98.68
2022-09-12T07:36:11.963Z,98.02
2022-09-12T07:38:43.771Z,98.88
2022-09-12T07:41:18.307Z,97.73
2022-09-12T07:43:52.448Z,96.58
2022-09-12T07:46:25.252Z,97.02
2022-09-12T07:48:56.275Z,97.86
2022-09-12T07:51:29.881Z,97.83
2022-09-12T07:54:02.738Z,97.09
2022-09-12T07:56:38.875Z,97.20
2022-09-12T07:59:11.525Z,96.72
2022-09-12T08:01:43.513Z,96.38
2022-09-12T08:04:15.891Z,95.53
2022-09-12T08:06:47.605Z,94.75
2022-09-12T08:09:19.589Z,93.86
2022-09-12T08:11:51.270Z,94.79
2022-09-12T08:14:23.234Z,95.55
2022-09-12T08:16:55.032Z,94.40
2022-09-12T08:19:26.685Z,93.45
2022-09-12T08:21:58.373Z,94.18
2022-09-12T08:24:29.978Z,94.26
2022-09-12T08:27:01.730Z,93.55
2022-09-12T08:29:33.434Z,93.52
2022-09-12T08:32:05.750Z,93.21
2022-09-12T08:34:37.464Z,91.89
2022-09-12T08:37:09.690Z,91.27
2022-09-12T08:39:41.895Z,90.79
2022-09-12T08:42:24.417Z,90.06
2022-09-12T08:45:16.244Z,90.20
2022-09-12T08:47:50.040Z,89.11
2022-09-12T08:50:23.571Z,88.53
2022-09-12T08:53:03.249Z,88.47
2022-09-12T08:55:38.518Z,87.80
2022-09-12T08:58:16.194Z,87.22
2022-09-12T09:01:03.332Z,86.89
2022-09-12T09:04:14.228Z,85.53
2022-09-12T09:07:06.135Z,85.83
2022-09-12T09:09:51.176Z,85.50
2022-09-12T09:12:34.848Z,84.67
2022-09-12T09:15:41.186Z,84.57
2022-09-12T09:18:21.113Z,84.35
2022-09-12T09:20:57.273Z,83.55
2022-09-12T09:23:32.346Z,82.27
2022-09-12T09:26:09.388Z,81.53
2022-09-12T09:28:47.488Z,80.11
2022-09-12T09:31:21.953Z,79.89
2022-09-12T09:33:56.288Z,79.53
2022-09-12T09:36:39.591Z,78.03
2022-09-12T09:39:22.087Z,76.75
2022-09-12T09:42:02.325Z,76.89
2022-09-12T09:44:34.277Z,75.39
2022-09-12T09:47:06.291Z,75.09
2022-09-12T09:49:38.060Z,75.05
2022-09-12T09:52:14.896Z,75.98
2022-09-12T09:54:54.241Z,74.30
2022-09-12T09:57:49.997Z,72.87
2022-09-12T10:00:27.826Z,71.24
2022-09-12T10:03:25.503Z,70.99
2022-09-12T10:06:01.020Z,69.26
2022-09-12T10:08:35.246Z,69.03
2022-09-12T10:11:22.893Z,69.79
2022-09-12T10:14:00.566Z,68.56
2022-09-12T10:16:34.885Z,65.88
2022-09-12T10:19:07.908Z,64.93
2022-09-12T10:21:46.968Z,65.15
2022-09-12T10:24:25.302Z,66.08
2022-09-12T10:27:00.348Z,66.73
2022-09-12T10:29:36.192Z,66.40
2022-09-12T10:32:12.663Z,65.84
2022-09-12T10:34:46.609Z,66.20
2022-09-12T10:37:27.560Z,66.08
2022-09-12T10:40:01.533Z,67.18
2022-09-12T10:42:54.678Z,67.04
2022-09-12T10:45:30.086Z,63.88
2022-09-12T10:48:07.520Z,62.02
2022-09-12T10:50:43.722Z,61.35
2022-09-12T10:53:22.608Z,62.80
2022-09-12T10:56:06.658Z,61.81
2022-09-12T10:59:01.170Z,63.15
2022-09-12T11:01:41.500Z,63.75
2022-09-12T11:04:25.402Z,63.08
2022-09-12T11:07:21.169Z,62.60
2022-09-12T11:10:01.656Z,61.57
2022-09-12T11:12:42.309Z,61.07
2022-09-12T11:15:36.322Z,58.73
2022-09-12T11:18:17.275Z,58.64
2022-09-12T11:21:00.926Z,58.38
2022-09-12T11:23:51.404Z,58.25
2022-09-12T11:26:58.422Z,57.77
2022-09-12T11:29:42.633Z,57.65
2022-09-12T11:32:47.525Z,57.48
2022-09-12T11:35:26.456Z,57.55
2022-09-12T11:38:24.508Z,57.57
2022-09-12T11:41:00.403Z,57.29
2022-09-12T11:43:42.400Z,57.25
2022-09-12T11:46:21.764Z,57.40
2022-09-12T11:48:59.998Z,57.41
2022-09-12T11:51:38.689Z,57.93
2022-09-12T11:54:23.965Z,57.48
2022-09-12T11:57:02.378Z,57.62
2022-09-12T11:59:42.493Z,57.39
2022-09-12T12:02:21.073Z,58.00
2022-09-12T12:05:04.834Z,58.88
2022-09-12T12:07:45.658Z,59.24
2022-09-12T12:10:39.100Z,59.64
2022-09-12T12:13:19.296Z,59.26
2022-09-12T12:15:55.408Z,59.06
2022-09-12T12:18:29.238Z,58.79
2022-09-12T12:21:22.937Z,59.07
2022-09-12T12:24:05.974Z,59.00
2022-09-12T12:27:02.705Z,59.32
2022-09-12T12:29:45.432Z,59.70
2022-09-12T12:32:27.657Z,59.76
2022-09-12T12:35:30.078Z,60.73
2022-09-12T12:38:02.988Z,59.80
2022-09-12T12:40:34.837Z,60.02
2022-09-12T12:43:31.504Z,59.96
2022-09-12T12:46:09.373Z,59.13
2022-09-12T12:49:05.938Z,58.87
2022-09-12T12:52:02.657Z,58.58
2022-09-12T12:54:51.104Z,58.04
2022-09-12T12:57:56.466Z,58.11
2022-09-12T13:00:32.815Z,56.54
2022-09-12T13:03:19.613Z,56.71
2022-09-12T13:05:57.460Z,57.57
2022-09-12T13:08:33.279Z,57.93
2022-09-12T13:11:11.730Z,58.62
2022-09-12T13:13:54.279Z,58.91
2022-09-12T13:16:35.222Z,59.54
2022-09-12T13:19:17.976Z,59.49
2022-09-12T13:22:01.406Z,58.78
2022-09-12T13:24:33.294Z,59.08
2022-09-12T13:27:16.654Z,59.64
2022-09-12T13:29:48.789Z,59.55
2022-09-12T13:32:21.057Z,59.90
2022-09-12T13:35:08.801Z,60.20
2022-09-12T13:37:51.453Z,60.70
2022-09-12T13:40:34.699Z,59.91
2022-09-12T13:43:17.008Z,60.32
2022-09-12T13:45:50.640Z,60.53
2022-09-12T13:48:26.304Z,60.86
2022-09-12T13:51:01.698Z,61.61
2022-09-12T13:53:45.423Z,61.03
2022-09-12T13:56:21.670Z,61.22
2022-09-12T13:58:58.023Z,61.73
2022-09-12T14:01:40.776Z,62.12
2022-09-12T14:04:39.386Z,62.80
2022-09-12T14:07:17.308Z,62.23
2022-09-12T14:09:56.907Z,61.50
2022-09-12T14:12:32.387Z,60.39
2022-09-12T14:15:04.861Z,60.26
2022-09-12T14:17:36.270Z,61.00
2022-09-12T14:20:13.641Z,60.98
2022-09-12T14:22:49.332Z,59.65
2022-09-12T14:25:25.470Z,59.55
2022-09-12T14:27:59.048Z,58.67
2022-09-12T14:30:33.045Z,57.33
2022-09-12T14:33:20.865Z,56.73
2022-09-12T14:35:57.661Z,56.32
2022-09-12T14:38:39.135Z,55.73
2022-09-12T14:41:13.024Z,55.55
2022-09-12T14:43:48.380Z,55.82
2022-09-12T14:46:24.086Z,54.90
2022-09-12T14:48:58.556Z,55.71
2022-09-12T14:51:35.063Z,55.01
2022-09-12T14:54:36.211Z,54.32
2022-09-12T14:57:28.753Z,54.09
2022-09-12T15:00:20.908Z,53.71
2022-09-12T15:02:53.955Z,52.70
2022-09-12T15:05:30.113Z,51.96
2022-09-12T15:08:03.518Z,51.80
2022-09-12T15:10:37.713Z,52.48
2022-09-12T15:13:21.116Z,52.87
2022-09-12T15:15:55.883Z,52.92
2022-09-12T15:18:29.709Z,51.45
2022-09-12T15:21:05.604Z,51.05
2022-09-12T15:23:42.937Z,51.01
2022-09-12T15:26:17.396Z,50.42
2022-09-12T15:28:49.835Z,50.66
2022-09-12T15:31:27.321Z,51.67
2022-09-12T15:34:01.798Z,51.80
2022-09-12T15:36:34.481Z,52.53
2022-09-12T15:39:06.597Z,52.41
2022-09-12T15:41:39.492Z,54.93
2022-09-12T15:44:14.311Z,56.69
2022-09-12T15:46:46.400Z,57.78
2022-09-12T15:49:18.460Z,58.28
2022-09-12T15:51:50.093Z,59.29
2022-09-12T15:54:22.158Z,60.30
2022-09-12T15:56:54.019Z,61.30
2022-09-12T15:59:25.847Z,62.00
2022-09-12T16:01:58.321Z,63.01
2022-09-12T16:04:31.162Z,64.07
2022-09-12T16:07:02.981Z,64.91
2022-09-12T16:09:34.750Z,65.34
2022-09-12T16:12:07.395Z,65.72
2022-09-12T16:14:39.049Z,65.76
2022-09-12T16:17:11.455Z,66.00
2022-09-12T16:19:43.755Z,66.89
2022-09-12T16:22:15.467Z,66.80
2022-09-12T16:24:47.161Z,67.55
2022-09-12T16:27:19.633Z,67.56
2022-09-12T16:29:51.972Z,68.12
2022-09-12T16:32:23.651Z,68.23
2022-09-12T16:34:55.408Z,68.46
2022-09-12T16:37:27.118Z,68.81
2022-09-12T16:39:59.150Z,68.79
2022-09-12T16:42:31.281Z,69.91
2022-09-12T16:45:03.380Z,70.18
2022-09-12T16:47:35.605Z,70.65
2022-09-12T16:50:09.470Z,70.96
2022-09-12T16:52:41.204Z,71.12
2022-09-12T16:55:12.955Z,71.52
2022-09-12T16:57:44.803Z,72.39
2022-09-12T17:00:17.305Z,72.10
2022-09-12T17:02:49.466Z,72.79
2022-09-12T17:05:21.192Z,72.93
2022-09-12T17:07:52.920Z,73.04
2022-09-12T17:10:24.592Z,73.09
2022-09-12T17:12:56.694Z,73.08
2022-09-12T17:15:28.401Z,73.15
2022-09-12T17:18:00.339Z,73.33
2022-09-12T17:20:32.359Z,74.71
2022-09-12T17:23:07.772Z,75.24
2022-09-12T17:25:41.564Z,76.03
2022-09-12T17:28:13.326Z,76.10
2022-09-12T17:30:45.040Z,76.28
2022-09-12T17:33:17.552Z,75.99
2022-09-12T17:35:49.093Z,75.48
2022-09-12T17:38:25.009Z,75.73
2022-09-12T17:40:59.719Z,75.54
2022-09-12T17:43:32.901Z,75.55
2022-09-12T17:46:05.142Z,76.15
2022-09-12T17:48:37.337Z,76.10
2022-09-12T17:51:13.569Z,76.68
2022-09-12T17:53:45.880Z,77.22
2022-09-12T17:56:17.801Z,77.26
2022-09-12T17:58:49.437Z,77.92
2022-09-12T18:01:38.950Z,79.27
2022-09-12T18:04:11.511Z,78.86
2022-09-12T18:06:48.247Z,79.09
2022-09-12T18:09:25.134Z,80.42
2022-09-12T18:11:57.272Z,81.76
2022-09-12T18:14:30.631Z,80.34
2022-09-12T18:17:03.310Z,79.66
2022-09-12T18:19:35.887Z,80.56
2022-09-12T18:22:08.922Z,81.35
2022-09-12T18:24:41.258Z,81.11
2022-09-12T18:27:13.080Z,82.30
2022-09-12T18:29:55.116Z,82.39
2022-09-12T18:32:36.272Z,83.17
2022-09-12T18:35:09.738Z,83.80
2022-09-12T18:37:42.901Z,84.49
2022-09-12T18:40:15.215Z,84.65
2022-09-12T18:42:48.012Z,83.74
2022-09-12T18:45:18.128Z,84.49
2022-09-12T18:47:49.777Z,85.25
2022-09-12T18:50:23.328Z,86.61
2022-09-12T18:52:59.632Z,87.07
2022-09-12T18:55:33.134Z,87.21
2022-09-12T18:58:04.924Z,87.57
2022-09-12T19:00:40.572Z,87.13
2022-09-12T19:03:12.611Z,87.40
2022-09-12T19:05:44.190Z,88.22
2022-09-12T19:08:16.132Z,87.92
2022-09-12T19:10:54.808Z,88.03
2022-09-12T19:13:26.642Z,87.92
2022-09-12T19:15:58.343Z,88.39
2022-09-12T19:18:31.443Z,88.32
2022-09-12T19:21:03.403Z,89.11
2022-09-12T19:23:35.982Z,88.05
2022-09-12T19:26:09.952Z,88.40
2022-09-12T19:28:42.376Z,88.79
2022-09-12T19:31:19.037Z,89.27
2022-09-12T19:33:52.257Z,89.66
2022-09-12T19:39:17.336Z,89.90
2022-09-12T19:41:49.715Z,90.47
2022-09-12T19:44:21.501Z,90.08
2022-09-12T19:46:53.461Z,90.43
2022-09-12T19:49:25.604Z,90.94
2022-09-12T19:51:57.581Z,91.35
2022-09-12T19:54:29.241Z,91.22
2022-09-12T19:57:01.379Z,91.60
2022-09-12T19:59:33.129Z,93.08
2022-09-12T20:02:05.391Z,92.63
2022-09-12T20:04:38.956Z,91.61
2022-09-12T20:07:10.734Z,92.27
2022-09-12T20:09:42.727Z,92.32
2022-09-12T20:12:15.129Z,92.87
2022-09-12T20:14:46.789Z,92.79
2022-09-12T20:17:19.077Z,93.49
2022-09-12T20:19:51.170Z,93.13
2022-09-12T20:22:23.235Z,93.32
2022-09-12T20:24:55.170Z,93.23
2022-09-12T20:27:27.498Z,92.65
2022-09-12T20:29:59.734Z,92.89
2022-09-12T20:32:31.732Z,92.75
2022-09-12T20:35:03.936Z,93.11
2022-09-12T20:37:37.198Z,93.22
2022-09-12T20:40:11.447Z,93.55
2022-09-12T20:42:43.289Z,94.11
2022-09-12T20:45:15.314Z,94.52
2022-09-12T20:47:47.008Z,94.04
2022-09-12T20:50:18.999Z,94.15
2022-09-12T20:52:51.078Z,94.88
2022-09-12T20:55:23.029Z,94.09
2022-09-12T20:57:54.683Z,94.25
2022-09-12T21:00:26.398Z,93.98
2022-09-12T21:02:58.239Z,92.87
2022-09-12T21:05:30.372Z,93.19
2022-09-12T21:08:02.583Z,93.42
2022-09-12T21:10:34.568Z,93.43
2022-09-12T21:13:06.203Z,94.27
2022-09-12T21:15:38.377Z,95.34
2022-09-12T21:18:11.396Z,95.20
2022-09-12T21:20:43.026Z,95.06
2022-09-12T21:23:14.674Z,95.04
2022-09-12T21:25:52.194Z,94.83
2022-09-12T21:28:25.291Z,94.64
2022-09-12T21:30:55.959Z,94.52
2022-09-12T21:33:28.089Z,95.36
2022-09-12T21:36:04.556Z,95.00
2022-09-12T21:38:36.947Z,95.10
2022-09-12T21:41:10.854Z,95.30
2022-09-12T21:43:43.319Z,94.40
2022-09-12T21:46:15.248Z,93.76
2022-09-12T21:48:47.121Z,94.21
2022-09-12T21:51:18.785Z,94.73
2022-09-12T21:53:50.447Z,94.37
2022-09-12T21:56:22.078Z,95.11
2022-09-12T21:58:53.956Z,95.39
2022-09-12T22:01:25.698Z,94.67
2022-09-12T22:03:57.361Z,93.69
2022-09-12T22:06:28.994Z,93.17
2022-09-12T22:09:00.890Z,92.80
2022-09-12T22:11:32.562Z,92.65
2022-09-12T22:14:04.256Z,92.51
2022-09-12T22:16:36.070Z,92.87
2022-09-12T22:19:08.502Z,92.78
2022-09-12T22:22:00.163Z,92.87
2022-09-12T22:24:32.059Z,93.58
2022-09-12T22:27:06.070Z,93.72
2022-09-12T22:29:39.045Z,93.36
2022-09-12T22:32:11.126Z,93.49
2022-09-12T22:34:43.247Z,93.03
2022-09-12T22:37:15.128Z,92.56
2022-09-12T22:39:46.932Z,92.57
2022-09-12T22:42:18.686Z,92.62
2022-09-12T22:44:50.346Z,92.93
2022-09-12T22:47:22.158Z,93.67
2022-09-12T22:49:53.937Z,92.91
2022-09-12T22:52:25.906Z,93.92
2022-09-12T22:54:57.674Z,94.13
2022-09-12T22:57:29.352Z,93.24
2022-09-12T23:00:01.221Z,92.42
2022-09-12T23:02:33.107Z,92.13
2022-09-12T23:05:04.885Z,92.53
2022-09-12T23:07:36.671Z,93.62
2022-09-12T23:10:10.633Z,94.27
2022-09-12T23:12:42.673Z,94.73
2022-09-12T23:15:16.433Z,95.67
2022-09-12T23:17:48.473Z,95.90
2022-09-12T23:20:20.337Z,96.10
2022-09-12T23:22:52.433Z,95.81
2022-09-12T23:25:26.276Z,96.35
2022-09-12T23:27:58.349Z,95.92
2022-09-12T23:30:30.980Z,95.24
2022-09-12T23:33:02.802Z,96.03
2022-09-12T23:35:36.392Z,96.40
2022-09-12T23:38:11.465Z,95.90
2022-09-12T23:40:46.141Z,95.03
2022-09-12T23:43:18.092Z,95.67
2022-09-12T23:45:50.343Z,96.04
2022-09-12T23:48:22.096Z,95.05
2022-09-12T23:50:53.870Z,95.32
2022-09-12T23:53:26.222Z,95.45
2022-09-12T23:55:59.480Z,94.20
2022-09-12T23:58:31.857Z,94.32
